sensor_id;sensor_type;location;lat;lon;timestamp;P1;durP1;ratioP1;P2;durP2;ratioP2
13122;SDS011;6627;50.920;12.050;2022-07-01T00:00:31;16.47;;;14.67;;
13122;SDS011;6627;50.920;12.050;2022-07-01T00:02:58;16.37;;;14.67;;
13122;SDS011;6627;50.920;12.050;2022-07-01T00:05:27;16.43;;;14.67;;
13122;SDS011;6627;50.920;12.050;2022-07-01T00:07:55;17.67;;;14.60;;
13122;SDS011;6627;50.920;12.050;2022-07-01T00:10:23;15.47;;;13.90;;
13122;SDS011;6627;50.920;12.050;2022-07-01T00:12:50;16.23;;;14.53;;
13122;SDS011;6627;50.920;12.050;2022-07-01T00:15:17;16.40;;;14.87;;
13122;SDS011;6627;50.920;12.050;2022-07-01T00:17:45;15.93;;;14.33;;
13122;SDS011;6627;50.920;12.050;2022-07-01T00:20:12;16.53;;;14.67;;
13122;SDS011;6627;50.920;12.050;2022-07-01T00:22:42;15.63;;;14.13;;
13122;SDS011;6627;50.920;12.050;2022-07-01T00:25:09;16.67;;;15.07;;
13122;SDS011;6627;50.920;12.050;2022-07-01T00:27:37;15.70;;;14.27;;
13122;SDS011;6627;50.920;12.050;2022-07-01T00:30:06;16.50;;;14.23;;
13122;SDS011;6627;50.920;12.050;2022-07-01T00:32:35;16.07;;;14.47;;
13122;SDS011;6627;50.920;12.050;2022-07-01T00:35:03;16.40;;;14.27;;
13122;SDS011;6627;50.920;12.050;2022-07-01T00:37:31;16.90;;;14.27;;
13122;SDS011;6627;50.920;12.050;2022-07-01T00:40:00;17.27;;;13.20;;
13122;SDS011;6627;50.920;12.050;2022-07-01T00:42:27;14.80;;;13.27;;
13122;SDS011;6627;50.920;12.050;2022-07-01T00:44:54;14.43;;;12.77;;
13122;SDS011;6627;50.920;12.050;2022-07-01T00:47:21;15.57;;;12.73;;
13122;SDS011;6627;50.920;12.050;2022-07-01T00:49:51;14.60;;;12.20;;
13122;SDS011;6627;50.920;12.050;2022-07-01T00:52:18;13.97;;;12.47;;
13122;SDS011;6627;50.920;12.050;2022-07-01T00:54:45;12.77;;;11.57;;
13122;SDS011;6627;50.920;12.050;2022-07-01T00:57:15;13.63;;;12.23;;
13122;SDS011;6627;50.920;12.050;2022-07-01T00:59:43;13.37;;;11.83;;
13122;SDS011;6627;50.920;12.050;2022-07-01T01:02:10;13.47;;;12.07;;
13122;SDS011;6627;50.920;12.050;2022-07-01T01:04:38;14.67;;;12.20;;
13122;SDS011;6627;50.920;12.050;2022-07-01T01:07:05;12.90;;;11.57;;
13122;SDS011;6627;50.920;12.050;2022-07-01T01:09:32;13.30;;;10.53;;
13122;SDS011;6627;50.920;12.050;2022-07-01T01:12:00;12.63;;;11.43;;
13122;SDS011;6627;50.920;12.050;2022-07-01T01:14:29;13.47;;;11.00;;
13122;SDS011;6627;50.920;12.050;2022-07-01T01:17:09;12.30;;;10.53;;
13122;SDS011;6627;50.920;12.050;2022-07-01T01:19:37;13.63;;;10.97;;
13122;SDS011;6627;50.920;12.050;2022-07-01T01:22:06;12.13;;;10.90;;
13122;SDS011;6627;50.920;12.050;2022-07-01T01:24:33;11.80;;;10.57;;
13122;SDS011;6627;50.920;12.050;2022-07-01T01:27:02;13.33;;;11.33;;
13122;SDS011;6627;50.920;12.050;2022-07-01T01:29:30;13.73;;;11.43;;
13122;SDS011;6627;50.920;12.050;2022-07-01T01:31:57;14.30;;;11.00;;
13122;SDS011;6627;50.920;12.050;2022-07-01T01:34:25;12.67;;;11.37;;
13122;SDS011;6627;50.920;12.050;2022-07-01T01:36:52;12.43;;;11.23;;
13122;SDS011;6627;50.920;12.050;2022-07-01T01:39:21;11.63;;;10.40;;
13122;SDS011;6627;50.920;12.050;2022-07-01T01:41:48;12.67;;;10.50;;
13122;SDS011;6627;50.920;12.050;2022-07-01T01:44:15;13.17;;;10.67;;
13122;SDS011;6627;50.920;12.050;2022-07-01T01:46:45;11.10;;;10.13;;
13122;SDS011;6627;50.920;12.050;2022-07-01T01:49:12;15.70;;;10.77;;
13122;SDS011;6627;50.920;12.050;2022-07-01T01:51:39;11.30;;;10.20;;
13122;SDS011;6627;50.920;12.050;2022-07-01T01:54:09;12.83;;;9.90;;
13122;SDS011;6627;50.920;12.050;2022-07-01T01:56:37;12.50;;;9.93;;
13122;SDS011;6627;50.920;12.050;2022-07-01T01:59:04;12.70;;;9.80;;
13122;SDS011;6627;50.920;12.050;2022-07-01T02:01:32;9.97;;;9.00;;
13122;SDS011;6627;50.920;12.050;2022-07-01T02:03:59;11.47;;;8.83;;
13122;SDS011;6627;50.920;12.050;2022-07-01T02:06:26;14.70;;;8.23;;
13122;SDS011;6627;50.920;12.050;2022-07-01T02:08:54;7.80;;;7.00;;
13122;SDS011;6627;50.920;12.050;2022-07-01T02:11:21;8.73;;;6.80;;
13122;SDS011;6627;50.920;12.050;2022-07-01T02:13:50;8.40;;;6.93;;
13122;SDS011;6627;50.920;12.050;2022-07-01T02:16:17;9.30;;;6.63;;
13122;SDS011;6627;50.920;12.050;2022-07-01T02:18:44;7.90;;;6.67;;
13122;SDS011;6627;50.920;12.050;2022-07-01T02:21:11;7.27;;;6.33;;
13122;SDS011;6627;50.920;12.050;2022-07-01T02:23:38;8.50;;;6.10;;
13122;SDS011;6627;50.920;12.050;2022-07-01T02:26:05;8.13;;;6.07;;
13122;SDS011;6627;50.920;12.050;2022-07-01T02:28:33;7.50;;;6.03;;
13122;SDS011;6627;50.920;12.050;2022-07-01T02:31:01;9.80;;;6.13;;
13122;SDS011;6627;50.920;12.050;2022-07-01T02:33:29;7.17;;;5.43;;
13122;SDS011;6627;50.920;12.050;2022-07-01T02:35:56;7.17;;;5.83;;
13122;SDS011;6627;50.920;12.050;2022-07-01T02:38:24;10.00;;;5.53;;
13122;SDS011;6627;50.920;12.050;2022-07-01T02:40:51;7.17;;;5.60;;
13122;SDS011;6627;50.920;12.050;2022-07-01T02:43:18;10.47;;;5.37;;
13122;SDS011;6627;50.920;12.050;2022-07-01T02:45:45;6.33;;;5.53;;
13122;SDS011;6627;50.920;12.050;2022-07-01T02:48:14;8.97;;;5.37;;
13122;SDS011;6627;50.920;12.050;2022-07-01T02:50:41;5.93;;;4.90;;
13122;SDS011;6627;50.920;12.050;2022-07-01T02:53:08;9.13;;;4.80;;
13122;SDS011;6627;50.920;12.050;2022-07-01T02:55:36;7.60;;;5.27;;
13122;SDS011;6627;50.920;12.050;2022-07-01T02:58:03;8.40;;;5.10;;
13122;SDS011;6627;50.920;12.050;2022-07-01T03:00:30;6.80;;;5.40;;
13122;SDS011;6627;50.920;12.050;2022-07-01T03:02:58;6.63;;;5.07;;
13122;SDS011;6627;50.920;12.050;2022-07-01T03:05:27;5.30;;;4.80;;
13122;SDS011;6627;50.920;12.050;2022-07-01T03:07:57;10.67;;;5.67;;
13122;SDS011;6627;50.920;12.050;2022-07-01T03:10:24;6.23;;;5.63;;
13122;SDS011;6627;50.920;12.050;2022-07-01T03:12:52;5.63;;;5.13;;
13122;SDS011;6627;50.920;12.050;2022-07-01T03:15:19;5.83;;;5.33;;
13122;SDS011;6627;50.920;12.050;2022-07-01T03:17:46;8.93;;;5.40;;
13122;SDS011;6627;50.920;12.050;2022-07-01T03:20:14;5.50;;;5.00;;
13122;SDS011;6627;50.920;12.050;2022-07-01T03:22:45;8.73;;;5.40;;
13122;SDS011;6627;50.920;12.050;2022-07-01T03:25:13;9.80;;;5.10;;
13122;SDS011;6627;50.920;12.050;2022-07-01T03:27:41;6.00;;;5.40;;
13122;SDS011;6627;50.920;12.050;2022-07-01T03:30:11;7.87;;;4.93;;
13122;SDS011;6627;50.920;12.050;2022-07-01T03:32:40;9.17;;;5.20;;
13122;SDS011;6627;50.920;12.050;2022-07-01T03:35:08;7.20;;;5.40;;
13122;SDS011;6627;50.920;12.050;2022-07-01T03:37:55;5.90;;;5.37;;
13122;SDS011;6627;50.920;12.050;2022-07-01T03:40:23;7.03;;;5.40;;
13122;SDS011;6627;50.920;12.050;2022-07-01T03:42:50;4.83;;;4.43;;
13122;SDS011;6627;50.920;12.050;2022-07-01T03:45:18;8.23;;;5.43;;
13122;SDS011;6627;50.920;12.050;2022-07-01T03:47:46;6.57;;;5.10;;
13122;SDS011;6627;50.920;12.050;2022-07-01T03:50:14;5.40;;;4.90;;
13122;SDS011;6627;50.920;12.050;2022-07-01T03:52:41;15.33;;;5.20;;
13122;SDS011;6627;50.920;12.050;2022-07-01T03:55:11;6.93;;;5.27;;
13122;SDS011;6627;50.920;12.050;2022-07-01T03:57:39;8.20;;;5.50;;
13122;SDS011;6627;50.920;12.050;2022-07-01T04:00:07;6.63;;;5.67;;
13122;SDS011;6627;50.920;12.050;2022-07-01T04:02:35;7.03;;;5.67;;
13122;SDS011;6627;50.920;12.050;2022-07-01T04:05:03;6.37;;;5.40;;
13122;SDS011;6627;50.920;12.050;2022-07-01T04:07:31;8.93;;;5.50;;
13122;SDS011;6627;50.920;12.050;2022-07-01T04:09:58;7.27;;;6.03;;
13122;SDS011;6627;50.920;12.050;2022-07-01T04:12:27;6.67;;;6.00;;
13122;SDS011;6627;50.920;12.050;2022-07-01T04:14:54;6.93;;;6.20;;
13122;SDS011;6627;50.920;12.050;2022-07-01T04:17:22;6.77;;;6.17;;
13122;SDS011;6627;50.920;12.050;2022-07-01T04:19:49;8.60;;;6.50;;
13122;SDS011;6627;50.920;12.050;2022-07-01T04:22:16;6.93;;;6.33;;
13122;SDS011;6627;50.920;12.050;2022-07-01T04:24:58;7.67;;;6.83;;
13122;SDS011;6627;50.920;12.050;2022-07-01T04:27:27;7.67;;;6.70;;
13122;SDS011;6627;50.920;12.050;2022-07-01T04:29:55;7.27;;;6.57;;
13122;SDS011;6627;50.920;12.050;2022-07-01T04:32:23;8.07;;;7.27;;
13122;SDS011;6627;50.920;12.050;2022-07-01T04:34:50;7.83;;;7.13;;
13122;SDS011;6627;50.920;12.050;2022-07-01T04:37:18;9.60;;;7.37;;
13122;SDS011;6627;50.920;12.050;2022-07-01T04:39:46;7.90;;;7.10;;
13122;SDS011;6627;50.920;12.050;2022-07-01T04:42:13;7.83;;;7.07;;
13122;SDS011;6627;50.920;12.050;2022-07-01T04:44:42;7.97;;;7.27;;
13122;SDS011;6627;50.920;12.050;2022-07-01T04:47:09;9.63;;;7.30;;
13122;SDS011;6627;50.920;12.050;2022-07-01T04:49:36;8.07;;;7.27;;
13122;SDS011;6627;50.920;12.050;2022-07-01T04:52:03;8.63;;;7.93;;
13122;SDS011;6627;50.920;12.050;2022-07-01T04:54:31;8.70;;;7.80;;
13122;SDS011;6627;50.920;12.050;2022-07-01T04:56:58;8.70;;;8.00;;
13122;SDS011;6627;50.920;12.050;2022-07-01T04:59:26;8.80;;;7.90;;
13122;SDS011;6627;50.920;12.050;2022-07-01T05:01:54;9.47;;;8.57;;
13122;SDS011;6627;50.920;12.050;2022-07-01T05:04:23;10.10;;;9.10;;
13122;SDS011;6627;50.920;12.050;2022-07-01T05:06:53;10.37;;;9.27;;
13122;SDS011;6627;50.920;12.050;2022-07-01T05:09:20;10.10;;;9.13;;
13122;SDS011;6627;50.920;12.050;2022-07-01T05:11:48;9.90;;;8.90;;
13122;SDS011;6627;50.920;12.050;2022-07-01T05:14:15;11.60;;;10.53;;
13122;SDS011;6627;50.920;12.050;2022-07-01T05:16:42;9.77;;;8.70;;
13122;SDS011;6627;50.920;12.050;2022-07-01T05:19:11;10.47;;;9.37;;
13122;SDS011;6627;50.920;12.050;2022-07-01T05:21:55;9.97;;;9.00;;
13122;SDS011;6627;50.920;12.050;2022-07-01T05:24:23;10.30;;;9.40;;
13122;SDS011;6627;50.920;12.050;2022-07-01T05:26:54;11.10;;;10.00;;
13122;SDS011;6627;50.920;12.050;2022-07-01T05:29:22;10.13;;;9.07;;
13122;SDS011;6627;50.920;12.050;2022-07-01T05:31:49;10.07;;;9.20;;
13122;SDS011;6627;50.920;12.050;2022-07-01T05:34:18;10.70;;;9.60;;
13122;SDS011;6627;50.920;12.050;2022-07-01T05:36:46;10.50;;;9.47;;
13122;SDS011;6627;50.920;12.050;2022-07-01T05:39:13;10.80;;;9.53;;
13122;SDS011;6627;50.920;12.050;2022-07-01T05:41:41;11.80;;;9.60;;
13122;SDS011;6627;50.920;12.050;2022-07-01T05:44:08;10.90;;;9.80;;
13122;SDS011;6627;50.920;12.050;2022-07-01T05:46:35;10.37;;;9.30;;
13122;SDS011;6627;50.920;12.050;2022-07-01T05:49:03;10.73;;;9.33;;
13122;SDS011;6627;50.920;12.050;2022-07-01T05:51:32;10.50;;;9.40;;
13122;SDS011;6627;50.920;12.050;2022-07-01T05:53:59;9.77;;;8.77;;
13122;SDS011;6627;50.920;12.050;2022-07-01T05:56:27;11.77;;;9.90;;
13122;SDS011;6627;50.920;12.050;2022-07-01T05:58:54;10.67;;;9.30;;
13122;SDS011;6627;50.920;12.050;2022-07-01T06:01:21;9.53;;;8.70;;
13122;SDS011;6627;50.920;12.050;2022-07-01T06:03:49;9.90;;;8.90;;
13122;SDS011;6627;50.920;12.050;2022-07-01T06:06:16;12.20;;;8.13;;
13122;SDS011;6627;50.920;12.050;2022-07-01T06:08:46;9.50;;;8.70;;
13122;SDS011;6627;50.920;12.050;2022-07-01T06:11:13;8.90;;;8.10;;
13122;SDS011;6627;50.920;12.050;2022-07-01T06:13:41;8.93;;;8.13;;
13122;SDS011;6627;50.920;12.050;2022-07-01T06:16:08;9.90;;;9.00;;
13122;SDS011;6627;50.920;12.050;2022-07-01T06:18:36;9.37;;;8.47;;
13122;SDS011;6627;50.920;12.050;2022-07-01T06:21:03;10.20;;;8.70;;
13122;SDS011;6627;50.920;12.050;2022-07-01T06:23:30;13.00;;;8.93;;
13122;SDS011;6627;50.920;12.050;2022-07-01T06:25:59;11.00;;;10.00;;
13122;SDS011;6627;50.920;12.050;2022-07-01T06:28:26;10.93;;;9.80;;
13122;SDS011;6627;50.920;12.050;2022-07-01T06:30:55;10.97;;;10.07;;
13122;SDS011;6627;50.920;12.050;2022-07-01T06:33:24;10.23;;;9.33;;
13122;SDS011;6627;50.920;12.050;2022-07-01T06:35:55;11.27;;;10.17;;
13122;SDS011;6627;50.920;12.050;2022-07-01T06:38:22;10.50;;;9.47;;
13122;SDS011;6627;50.920;12.050;2022-07-01T06:40:49;10.33;;;9.33;;
13122;SDS011;6627;50.920;12.050;2022-07-01T06:43:32;9.03;;;8.33;;
13122;SDS011;6627;50.920;12.050;2022-07-01T06:46:00;9.30;;;8.43;;
13122;SDS011;6627;50.920;12.050;2022-07-01T06:48:27;10.97;;;10.07;;
13122;SDS011;6627;50.920;12.050;2022-07-01T06:50:54;9.90;;;8.87;;
13122;SDS011;6627;50.920;12.050;2022-07-01T06:53:22;9.13;;;8.23;;
13122;SDS011;6627;50.920;12.050;2022-07-01T06:55:49;10.43;;;9.43;;
13122;SDS011;6627;50.920;12.050;2022-07-01T06:58:16;12.67;;;9.80;;
13122;SDS011;6627;50.920;12.050;2022-07-01T07:00:45;10.87;;;9.87;;
13122;SDS011;6627;50.920;12.050;2022-07-01T07:03:12;10.20;;;9.20;;
13122;SDS011;6627;50.920;12.050;2022-07-01T07:05:40;10.73;;;9.70;;
13122;SDS011;6627;50.920;12.050;2022-07-01T07:08:07;10.00;;;9.00;;
13122;SDS011;6627;50.920;12.050;2022-07-01T07:10:34;9.93;;;8.60;;
13122;SDS011;6627;50.920;12.050;2022-07-01T07:13:01;9.83;;;8.90;;
13122;SDS011;6627;50.920;12.050;2022-07-01T07:15:29;10.13;;;8.83;;
13122;SDS011;6627;50.920;12.050;2022-07-01T07:17:58;10.43;;;9.30;;
13122;SDS011;6627;50.920;12.050;2022-07-01T07:20:25;10.40;;;9.00;;
13122;SDS011;6627;50.920;12.050;2022-07-01T07:22:53;10.03;;;9.00;;
13122;SDS011;6627;50.920;12.050;2022-07-01T07:25:21;9.63;;;8.47;;
13122;SDS011;6627;50.920;12.050;2022-07-01T07:27:48;10.30;;;9.40;;
13122;SDS011;6627;50.920;12.050;2022-07-01T07:30:15;12.23;;;9.23;;
13122;SDS011;6627;50.920;12.050;2022-07-01T07:32:44;10.20;;;9.30;;
13122;SDS011;6627;50.920;12.050;2022-07-01T07:35:13;9.67;;;8.70;;
13122;SDS011;6627;50.920;12.050;2022-07-01T07:37:40;9.90;;;8.90;;
13122;SDS011;6627;50.920;12.050;2022-07-01T07:40:09;10.63;;;8.97;;
13122;SDS011;6627;50.920;12.050;2022-07-01T07:42:40;9.50;;;8.60;;
13122;SDS011;6627;50.920;12.050;2022-07-01T07:45:08;10.07;;;9.07;;
13122;SDS011;6627;50.920;12.050;2022-07-01T07:47:37;9.17;;;8.27;;
13122;SDS011;6627;50.920;12.050;2022-07-01T07:50:05;9.07;;;8.20;;
13122;SDS011;6627;50.920;12.050;2022-07-01T07:52:35;9.37;;;8.47;;
13122;SDS011;6627;50.920;12.050;2022-07-01T07:55:04;8.90;;;8.00;;
13122;SDS011;6627;50.920;12.050;2022-07-01T07:57:34;8.23;;;7.43;;
13122;SDS011;6627;50.920;12.050;2022-07-01T08:00:02;9.37;;;8.43;;
13122;SDS011;6627;50.920;12.050;2022-07-01T08:02:31;9.47;;;8.57;;
13122;SDS011;6627;50.920;12.050;2022-07-01T08:04:58;8.70;;;7.83;;
13122;SDS011;6627;50.920;12.050;2022-07-01T08:07:26;8.70;;;7.90;;
13122;SDS011;6627;50.920;12.050;2022-07-01T08:09:55;8.47;;;7.67;;
13122;SDS011;6627;50.920;12.050;2022-07-01T08:12:22;10.03;;;7.50;;
13122;SDS011;6627;50.920;12.050;2022-07-01T08:14:51;7.90;;;7.27;;
13122;SDS011;6627;50.920;12.050;2022-07-01T08:17:18;8.20;;;7.50;;
13122;SDS011;6627;50.920;12.050;2022-07-01T08:19:45;7.77;;;6.90;;
13122;SDS011;6627;50.920;12.050;2022-07-01T08:22:13;7.73;;;6.90;;
13122;SDS011;6627;50.920;12.050;2022-07-01T08:24:40;9.17;;;7.43;;
13122;SDS011;6627;50.920;12.050;2022-07-01T08:27:09;7.30;;;6.80;;
13122;SDS011;6627;50.920;12.050;2022-07-01T08:29:37;8.77;;;7.47;;
13122;SDS011;6627;50.920;12.050;2022-07-01T08:32:05;8.50;;;7.73;;
13122;SDS011;6627;50.920;12.050;2022-07-01T08:34:34;9.30;;;8.47;;
13122;SDS011;6627;50.920;12.050;2022-07-01T08:37:02;10.13;;;8.47;;
13122;SDS011;6627;50.920;12.050;2022-07-01T08:39:30;10.03;;;9.10;;
13122;SDS011;6627;50.920;12.050;2022-07-01T08:41:58;10.33;;;9.33;;
13122;SDS011;6627;50.920;12.050;2022-07-01T08:44:26;10.60;;;9.50;;
13122;SDS011;6627;50.920;12.050;2022-07-01T08:46:53;8.93;;;8.23;;
13122;SDS011;6627;50.920;12.050;2022-07-01T08:49:21;9.60;;;8.70;;
13122;SDS011;6627;50.920;12.050;2022-07-01T08:51:49;9.73;;;8.73;;
13122;SDS011;6627;50.920;12.050;2022-07-01T08:54:16;9.87;;;8.87;;
13122;SDS011;6627;50.920;12.050;2022-07-01T08:56:43;9.57;;;8.63;;
13122;SDS011;6627;50.920;12.050;2022-07-01T08:59:23;9.83;;;8.93;;
13122;SDS011;6627;50.920;12.050;2022-07-01T09:01:54;9.33;;;8.43;;
13122;SDS011;6627;50.920;12.050;2022-07-01T09:04:22;14.23;;;9.23;;
13122;SDS011;6627;50.920;12.050;2022-07-01T09:06:50;11.73;;;9.27;;
13122;SDS011;6627;50.920;12.050;2022-07-01T09:09:19;14.53;;;9.53;;
13122;SDS011;6627;50.920;12.050;2022-07-01T09:11:48;10.80;;;9.80;;
13122;SDS011;6627;50.920;12.050;2022-07-01T09:14:20;9.03;;;8.13;;
13122;SDS011;6627;50.920;12.050;2022-07-01T09:16:51;8.63;;;7.83;;
13122;SDS011;6627;50.920;12.050;2022-07-01T09:19:21;11.30;;;9.67;;
13122;SDS011;6627;50.920;12.050;2022-07-01T09:21:50;9.73;;;8.83;;
13122;SDS011;6627;50.920;12.050;2022-07-01T09:24:22;11.13;;;8.67;;
13122;SDS011;6627;50.920;12.050;2022-07-01T09:26:54;10.87;;;8.63;;
13122;SDS011;6627;50.920;12.050;2022-07-01T09:29:27;8.70;;;7.20;;
13122;SDS011;6627;50.920;12.050;2022-07-01T09:31:59;6.70;;;6.10;;
13122;SDS011;6627;50.920;12.050;2022-07-01T09:34:32;5.60;;;5.10;;
13122;SDS011;6627;50.920;12.050;2022-07-01T09:37:00;6.30;;;5.27;;
13122;SDS011;6627;50.920;12.050;2022-07-01T09:39:29;8.20;;;5.40;;
13122;SDS011;6627;50.920;12.050;2022-07-01T09:41:56;5.47;;;4.83;;
13122;SDS011;6627;50.920;12.050;2022-07-01T09:44:24;6.13;;;5.50;;
13122;SDS011;6627;50.920;12.050;2022-07-01T09:46:54;4.97;;;4.47;;
13122;SDS011;6627;50.920;12.050;2022-07-01T09:49:25;6.73;;;4.80;;
13122;SDS011;6627;50.920;12.050;2022-07-01T09:51:52;4.30;;;3.93;;
13122;SDS011;6627;50.920;12.050;2022-07-01T09:54:20;4.40;;;3.93;;
13122;SDS011;6627;50.920;12.050;2022-07-01T09:56:47;4.70;;;4.20;;
13122;SDS011;6627;50.920;12.050;2022-07-01T09:59:15;5.07;;;4.60;;
13122;SDS011;6627;50.920;12.050;2022-07-01T10:01:42;5.10;;;4.47;;
13122;SDS011;6627;50.920;12.050;2022-07-01T10:04:14;5.10;;;4.70;;
13122;SDS011;6627;50.920;12.050;2022-07-01T10:07:06;4.70;;;4.30;;
13122;SDS011;6627;50.920;12.050;2022-07-01T10:09:54;4.70;;;4.30;;
13122;SDS011;6627;50.920;12.050;2022-07-01T10:12:34;4.90;;;4.50;;
13122;SDS011;6627;50.920;12.050;2022-07-01T10:15:07;5.10;;;4.70;;
13122;SDS011;6627;50.920;12.050;2022-07-01T10:17:42;5.33;;;4.93;;
13122;SDS011;6627;50.920;12.050;2022-07-01T10:20:12;4.80;;;4.40;;
13122;SDS011;6627;50.920;12.050;2022-07-01T10:22:44;4.73;;;4.33;;
13122;SDS011;6627;50.920;12.050;2022-07-01T10:25:32;4.90;;;4.50;;
13122;SDS011;6627;50.920;12.050;2022-07-01T10:28:16;4.30;;;4.00;;
13122;SDS011;6627;50.920;12.050;2022-07-01T10:30:51;4.43;;;4.03;;
13122;SDS011;6627;50.920;12.050;2022-07-01T10:33:27;4.67;;;3.80;;
13122;SDS011;6627;50.920;12.050;2022-07-01T10:36:26;5.03;;;4.53;;
13122;SDS011;6627;50.920;12.050;2022-07-01T10:39:11;5.77;;;5.27;;
13122;SDS011;6627;50.920;12.050;2022-07-01T10:42:01;5.50;;;4.87;;
13122;SDS011;6627;50.920;12.050;2022-07-01T10:44:31;5.27;;;4.77;;
13122;SDS011;6627;50.920;12.050;2022-07-01T10:47:03;4.40;;;4.00;;
13122;SDS011;6627;50.920;12.050;2022-07-01T10:52:24;4.80;;;4.40;;
13122;SDS011;6627;50.920;12.050;2022-07-01T10:54:53;5.10;;;4.70;;
13122;SDS011;6627;50.920;12.050;2022-07-01T10:57:25;4.80;;;4.10;;
13122;SDS011;6627;50.920;12.050;2022-07-01T11:03:08;4.30;;;3.90;;
13122;SDS011;6627;50.920;12.050;2022-07-01T11:05:39;4.40;;;4.07;;
13122;SDS011;6627;50.920;12.050;2022-07-01T11:08:08;4.27;;;3.73;;
13122;SDS011;6627;50.920;12.050;2022-07-01T11:10:38;4.53;;;4.13;;
13122;SDS011;6627;50.920;12.050;2022-07-01T11:13:08;4.10;;;3.80;;
13122;SDS011;6627;50.920;12.050;2022-07-01T11:15:39;4.60;;;4.20;;
13122;SDS011;6627;50.920;12.050;2022-07-01T11:18:08;4.87;;;4.30;;
13122;SDS011;6627;50.920;12.050;2022-07-01T11:20:36;5.63;;;4.80;;
13122;SDS011;6627;50.920;12.050;2022-07-01T11:23:03;4.90;;;4.50;;
13122;SDS011;6627;50.920;12.050;2022-07-01T11:25:33;4.40;;;4.00;;
13122;SDS011;6627;50.920;12.050;2022-07-01T11:28:02;5.07;;;4.67;;
13122;SDS011;6627;50.920;12.050;2022-07-01T11:30:30;5.03;;;4.53;;
13122;SDS011;6627;50.920;12.050;2022-07-01T11:32:59;4.73;;;4.33;;
13122;SDS011;6627;50.920;12.050;2022-07-01T11:35:27;5.07;;;4.30;;
13122;SDS011;6627;50.920;12.050;2022-07-01T11:38:14;4.70;;;4.33;;
13122;SDS011;6627;50.920;12.050;2022-07-01T11:41:01;5.13;;;4.63;;
13122;SDS011;6627;50.920;12.050;2022-07-01T11:43:33;5.27;;;4.77;;
13122;SDS011;6627;50.920;12.050;2022-07-01T11:46:06;5.17;;;4.77;;
13122;SDS011;6627;50.920;12.050;2022-07-01T11:48:35;5.70;;;5.20;;
13122;SDS011;6627;50.920;12.050;2022-07-01T11:51:06;8.43;;;4.77;;
13122;SDS011;6627;50.920;12.050;2022-07-01T11:53:40;7.27;;;5.63;;
13122;SDS011;6627;50.920;12.050;2022-07-01T11:56:09;10.13;;;6.10;;
13122;SDS011;6627;50.920;12.050;2022-07-01T11:58:42;6.30;;;5.70;;
13122;SDS011;6627;50.920;12.050;2022-07-01T12:01:19;6.90;;;6.27;;
13122;SDS011;6627;50.920;12.050;2022-07-01T12:03:48;7.10;;;6.40;;
13122;SDS011;6627;50.920;12.050;2022-07-01T12:06:16;6.90;;;6.20;;
13122;SDS011;6627;50.920;12.050;2022-07-01T12:08:45;7.30;;;6.60;;
13122;SDS011;6627;50.920;12.050;2022-07-01T12:11:15;6.50;;;5.90;;
13122;SDS011;6627;50.920;12.050;2022-07-01T12:13:45;7.60;;;6.83;;
13122;SDS011;6627;50.920;12.050;2022-07-01T12:16:13;7.00;;;6.40;;
13122;SDS011;6627;50.920;12.050;2022-07-01T12:18:50;7.90;;;7.20;;
13122;SDS011;6627;50.920;12.050;2022-07-01T12:21:23;7.73;;;6.97;;
13122;SDS011;6627;50.920;12.050;2022-07-01T12:24:07;7.80;;;7.07;;
13122;SDS011;6627;50.920;12.050;2022-07-01T12:26:45;8.43;;;7.37;;
13122;SDS011;6627;50.920;12.050;2022-07-01T12:29:22;7.87;;;7.10;;
13122;SDS011;6627;50.920;12.050;2022-07-01T12:31:56;8.00;;;7.20;;
13122;SDS011;6627;50.920;12.050;2022-07-01T12:34:38;8.00;;;7.10;;
13122;SDS011;6627;50.920;12.050;2022-07-01T12:37:10;8.20;;;6.97;;
13122;SDS011;6627;50.920;12.050;2022-07-01T12:39:42;7.20;;;6.50;;
13122;SDS011;6627;50.920;12.050;2022-07-01T12:42:21;7.47;;;6.27;;
13122;SDS011;6627;50.920;12.050;2022-07-01T12:44:53;6.87;;;6.10;;
13122;SDS011;6627;50.920;12.050;2022-07-01T12:47:26;7.43;;;6.73;;
13122;SDS011;6627;50.920;12.050;2022-07-01T12:50:14;6.80;;;5.80;;
13122;SDS011;6627;50.920;12.050;2022-07-01T12:52:55;7.07;;;5.30;;
13122;SDS011;6627;50.920;12.050;2022-07-01T12:55:26;6.10;;;5.50;;
13122;SDS011;6627;50.920;12.050;2022-07-01T12:57:57;6.83;;;5.67;;
13122;SDS011;6627;50.920;12.050;2022-07-01T13:00:27;5.33;;;4.73;;
13122;SDS011;6627;50.920;12.050;2022-07-01T13:02:57;5.57;;;4.80;;
13122;SDS011;6627;50.920;12.050;2022-07-01T13:05:27;5.27;;;4.70;;
13122;SDS011;6627;50.920;12.050;2022-07-01T13:07:58;5.53;;;5.03;;
13122;SDS011;6627;50.920;12.050;2022-07-01T13:10:25;5.20;;;4.70;;
13122;SDS011;6627;50.920;12.050;2022-07-01T13:12:53;4.70;;;4.30;;
13122;SDS011;6627;50.920;12.050;2022-07-01T13:15:21;6.00;;;4.50;;
13122;SDS011;6627;50.920;12.050;2022-07-01T13:17:50;4.97;;;4.17;;
13122;SDS011;6627;50.920;12.050;2022-07-01T13:20:18;5.00;;;4.50;;
13122;SDS011;6627;50.920;12.050;2022-07-01T13:22:46;4.37;;;3.97;;
13122;SDS011;6627;50.920;12.050;2022-07-01T13:25:13;7.50;;;3.73;;
13122;SDS011;6627;50.920;12.050;2022-07-01T13:27:41;5.87;;;4.40;;
13122;SDS011;6627;50.920;12.050;2022-07-01T13:30:10;5.20;;;4.50;;
13122;SDS011;6627;50.920;12.050;2022-07-01T13:32:39;5.20;;;4.70;;
13122;SDS011;6627;50.920;12.050;2022-07-01T13:35:09;4.60;;;4.20;;
13122;SDS011;6627;50.920;12.050;2022-07-01T13:37:39;4.20;;;3.80;;
13122;SDS011;6627;50.920;12.050;2022-07-01T13:40:07;4.23;;;3.83;;
13122;SDS011;6627;50.920;12.050;2022-07-01T13:42:35;4.87;;;4.37;;
13122;SDS011;6627;50.920;12.050;2022-07-01T13:45:03;4.47;;;4.07;;
13122;SDS011;6627;50.920;12.050;2022-07-01T13:47:32;4.80;;;4.30;;
13122;SDS011;6627;50.920;12.050;2022-07-01T13:49:59;5.97;;;3.97;;
13122;SDS011;6627;50.920;12.050;2022-07-01T13:52:28;4.47;;;4.07;;
13122;SDS011;6627;50.920;12.050;2022-07-01T13:54:56;4.37;;;3.93;;
13122;SDS011;6627;50.920;12.050;2022-07-01T13:57:25;4.00;;;3.70;;
13122;SDS011;6627;50.920;12.050;2022-07-01T13:59:53;4.13;;;3.73;;
13122;SDS011;6627;50.920;12.050;2022-07-01T14:02:22;4.17;;;3.77;;
13122;SDS011;6627;50.920;12.050;2022-07-01T14:04:49;6.17;;;4.03;;
13122;SDS011;6627;50.920;12.050;2022-07-01T14:07:16;4.30;;;3.90;;
13122;SDS011;6627;50.920;12.050;2022-07-01T14:09:45;5.27;;;3.83;;
13122;SDS011;6627;50.920;12.050;2022-07-01T14:12:13;4.30;;;3.90;;
13122;SDS011;6627;50.920;12.050;2022-07-01T14:14:42;4.47;;;3.97;;
13122;SDS011;6627;50.920;12.050;2022-07-01T14:17:09;4.27;;;3.87;;
13122;SDS011;6627;50.920;12.050;2022-07-01T14:19:36;4.90;;;3.97;;
13122;SDS011;6627;50.920;12.050;2022-07-01T14:22:04;4.53;;;4.07;;
13122;SDS011;6627;50.920;12.050;2022-07-01T14:24:33;5.73;;;3.47;;
13122;SDS011;6627;50.920;12.050;2022-07-01T14:27:01;4.63;;;4.13;;
13122;SDS011;6627;50.920;12.050;2022-07-01T14:29:29;4.30;;;3.90;;
13122;SDS011;6627;50.920;12.050;2022-07-01T14:31:56;4.83;;;3.87;;
13122;SDS011;6627;50.920;12.050;2022-07-01T14:34:25;4.80;;;4.40;;
13122;SDS011;6627;50.920;12.050;2022-07-01T14:36:53;4.43;;;3.83;;
13122;SDS011;6627;50.920;12.050;2022-07-01T14:39:20;4.70;;;4.20;;
13122;SDS011;6627;50.920;12.050;2022-07-01T14:41:47;5.20;;;4.70;;
13122;SDS011;6627;50.920;12.050;2022-07-01T14:44:18;7.27;;;5.73;;
13122;SDS011;6627;50.920;12.050;2022-07-01T14:46:45;4.57;;;3.90;;
13122;SDS011;6627;50.920;12.050;2022-07-01T14:49:12;4.03;;;3.47;;
13122;SDS011;6627;50.920;12.050;2022-07-01T14:51:43;3.33;;;3.10;;
13122;SDS011;6627;50.920;12.050;2022-07-01T14:54:10;3.70;;;3.30;;
13122;SDS011;6627;50.920;12.050;2022-07-01T14:56:38;3.67;;;3.37;;
13122;SDS011;6627;50.920;12.050;2022-07-01T14:59:05;3.90;;;3.50;;